SBOSBO YQX / CYQX
Speedbird OnlineSpeedbird Online YQX / CYQX

Gander International Airport
12:28 30°C

Location Gander, Canada
Latitude: 48.9369010925293
Longitude: -54.56809997558594
Local Time 12:28 on 20 Jun 2024
UTC -2.5 hours (America/St_Johns)
Currency £1 equals CAD 1.74
METAR CYQX 201400Z 23013KT 20SM FEW180 30/21 A2973 RMK AS1 AS TR SLP067 DENSITY ALT 2600FT
TAF TAF CYQX 201143Z 2012/2112 23015G25KT P6SM FEW170 BECMG 2012/2014 25018G28KT FM202100 27015G25KT P6SM -SHRA BKN040 PROB30 2021/2023 3SM TSRA BR OVC020CB FM202300 33012G22KT P6SM BKN040 FM210200 32006KT P6SM SCT004 PROB30 2102/2104 2SM BR BKN004 FM210400 34005KT 6SM -DZ BR BKN004 FM210900 VRB03KT P6SM FEW008 FM211100 24005KT P6SM SKC RMK NXT FCST BY 201800Z
Weather As Of 20 Jun 2024 12:28
Description Few clouds
Wind 24 km/h from South-West (230°)
Cloud Cover 20%
Precipitation Rain: none, Snow: none
Sunrise 05:04
Sunset 21:15
Web Wikipedia
Codes IATA: YQX
ICAO: CYQX
Altitude 151 Meter / 496 Feet
Distance 3,811 KM / 2,368 Miles
from London.
Runways
RunwayLength (m)Surface
033109Asphalt
09572Asphalt
132713Asphalt
213109Asphalt
27572Asphalt
312713Asphalt
Radio
TypeDescriptionFrequency
A/DAPP/DEP128.5
ATISATIS124.8
GNDGND121.9
OPSOUTCAST OPS128.85
RCOHALIFAX RDO126.7
TWRTWR118.1
Live ATC



Support Speedbird Online

© 2017-2024 Speedbird Online